createdAt,value
2022-11-04T00:02:00.357Z,2.97
2022-11-04T00:04:27.982Z,2.30
2022-11-04T00:06:55.654Z,2.30
2022-11-04T00:09:27.368Z,2.00
2022-11-04T00:12:13.336Z,1.80
2022-11-04T00:14:40.102Z,1.67
2022-11-04T00:17:22.239Z,1.58
2022-11-04T00:20:09.500Z,1.80
2022-11-04T00:22:55.603Z,1.73
2022-11-04T00:28:33.409Z,1.58
2022-11-04T00:31:21.005Z,1.00
2022-11-04T00:33:48.898Z,1.30
2022-11-04T00:36:15.775Z,1.00
2022-11-04T00:38:42.454Z,0.90
2022-11-04T00:41:26.362Z,0.80
2022-11-04T00:43:58.539Z,1.42
2022-11-04T00:46:26.449Z,1.27
2022-11-04T00:48:52.959Z,1.70
2022-11-04T00:51:21.360Z,2.00
2022-11-04T00:53:48.165Z,1.80
2022-11-04T00:56:14.679Z,1.92
2022-11-04T00:58:41.281Z,1.80
2022-11-04T01:01:09.544Z,1.20
2022-11-04T01:03:36.361Z,1.05
2022-11-04T01:06:02.936Z,0.80
2022-11-04T01:08:29.407Z,1.20
2022-11-04T01:10:55.983Z,1.95
2022-11-04T01:13:22.444Z,2.25
2022-11-04T01:15:48.917Z,3.10
2022-11-04T01:18:15.481Z,3.58
2022-11-04T01:20:42.004Z,3.00
2022-11-04T01:23:08.591Z,2.88
2022-11-04T01:25:35.108Z,2.05
2022-11-04T01:28:01.587Z,1.83
2022-11-04T01:30:28.077Z,1.20
2022-11-04T01:32:54.547Z,1.30
2022-11-04T01:35:21.016Z,1.90
2022-11-04T01:37:47.720Z,2.30
2022-11-04T01:40:14.212Z,2.63
2022-11-04T01:42:40.692Z,2.72
2022-11-04T01:45:13.525Z,3.67
2022-11-04T01:47:43.961Z,4.00
2022-11-04T01:50:16.557Z,4.35
2022-11-04T01:52:53.212Z,4.35
2022-11-04T01:55:24.008Z,5.45
2022-11-04T01:57:51.309Z,6.47
2022-11-04T02:00:18.598Z,6.97
2022-11-04T02:02:51.151Z,7.40
2022-11-04T02:05:17.825Z,8.90
2022-11-04T02:07:44.280Z,9.60
2022-11-04T02:10:11.018Z,11.60
2022-11-04T02:12:49.672Z,12.77
2022-11-04T02:15:36.748Z,13.77
2022-11-04T02:18:24.608Z,14.45
2022-11-04T02:21:06.474Z,16.13
2022-11-04T02:23:44.177Z,17.08
2022-11-04T02:26:20.048Z,16.30
2022-11-04T02:29:01.927Z,15.40
2022-11-04T02:31:33.987Z,14.95
2022-11-04T02:34:05.630Z,14.52
2022-11-04T02:36:47.827Z,15.35
2022-11-04T02:39:38.743Z,13.70
2022-11-04T02:42:22.442Z,14.73
2022-11-04T02:44:53.970Z,14.38
2022-11-04T02:47:23.428Z,13.57
2022-11-04T02:50:14.924Z,14.10
2022-11-04T02:52:51.326Z,12.23
2022-11-04T02:55:25.985Z,11.57
2022-11-04T02:57:54.804Z,12.20
2022-11-04T03:00:21.581Z,10.48
2022-11-04T03:02:50.962Z,11.35
2022-11-04T03:05:20.170Z,11.25
2022-11-04T03:07:48.257Z,10.80
2022-11-04T03:10:19.755Z,9.55
2022-11-04T03:12:50.783Z,9.75
2022-11-04T03:15:22.537Z,10.07
2022-11-04T03:18:00.961Z,9.15
2022-11-04T03:20:28.714Z,9.75
2022-11-04T03:22:59.868Z,8.10
2022-11-04T03:25:31.018Z,7.32
2022-11-04T03:28:09.786Z,7.88
2022-11-04T03:30:43.355Z,7.20
2022-11-04T03:33:24.698Z,7.15
2022-11-04T03:35:51.338Z,6.55
2022-11-04T03:38:17.816Z,6.60
2022-11-04T03:40:44.354Z,6.13
2022-11-04T03:43:18.836Z,5.07
2022-11-04T03:45:45.504Z,4.88
2022-11-04T03:48:13.068Z,4.80
2022-11-04T03:50:42.171Z,3.90
2022-11-04T03:53:09.579Z,3.92
2022-11-04T03:55:45.400Z,3.45
2022-11-04T03:58:32.155Z,3.00
2022-11-04T04:01:14.253Z,3.53
2022-11-04T04:03:53.433Z,3.55
2022-11-04T04:06:25.384Z,3.28
2022-11-04T04:08:54.464Z,2.95
2022-11-04T04:11:23.504Z,3.80
2022-11-04T04:14:08.325Z,3.88
2022-11-04T04:16:39.630Z,4.38
2022-11-04T04:19:08.140Z,4.68
2022-11-04T04:21:48.276Z,5.57
2022-11-04T04:24:36.410Z,5.00
2022-11-04T04:27:22.052Z,7.05
2022-11-04T04:32:16.207Z,8.02
2022-11-04T04:34:43.224Z,7.15
2022-11-04T04:37:19.541Z,7.28
2022-11-04T04:40:08.215Z,7.95
2022-11-04T04:42:54.181Z,7.53
2022-11-04T04:45:28.103Z,7.85
2022-11-04T04:47:54.668Z,8.13
2022-11-04T04:50:21.958Z,7.75
2022-11-04T04:52:51.521Z,7.85
2022-11-04T04:55:18.538Z,8.88
2022-11-04T04:57:45.481Z,8.45
2022-11-04T05:00:15.490Z,8.93
2022-11-04T05:02:42.299Z,8.20
2022-11-04T05:05:09.231Z,7.75
2022-11-04T05:07:36.022Z,8.55
2022-11-04T05:10:02.617Z,9.40
2022-11-04T05:12:49.050Z,10.07
2022-11-04T05:15:15.538Z,10.15
2022-11-04T05:17:42.124Z,9.95
2022-11-04T05:20:09.599Z,10.57
2022-11-04T05:22:36.069Z,9.57
2022-11-04T05:25:02.553Z,11.25
2022-11-04T05:27:29.071Z,10.77
2022-11-04T05:29:55.565Z,11.07
2022-11-04T05:32:22.074Z,10.27
2022-11-04T05:34:48.695Z,9.85
2022-11-04T05:37:15.230Z,10.10
2022-11-04T05:39:41.698Z,10.93
2022-11-04T05:42:08.172Z,10.68
2022-11-04T05:44:34.630Z,11.32
2022-11-04T05:47:01.238Z,11.52
2022-11-04T05:49:27.698Z,10.00
2022-11-04T05:51:54.300Z,11.05
2022-11-04T05:54:20.788Z,11.35
2022-11-04T05:56:47.289Z,10.85
2022-11-04T05:59:13.746Z,11.88
2022-11-04T06:01:41.915Z,11.25
2022-11-04T06:04:13.878Z,11.20
2022-11-04T06:06:40.369Z,11.35
2022-11-04T06:09:06.990Z,11.18
2022-11-04T06:11:34.251Z,11.88
2022-11-04T06:14:00.762Z,12.25
2022-11-04T06:16:27.542Z,12.38
2022-11-04T06:18:54.342Z,11.80
2022-11-04T06:21:29.559Z,13.45
2022-11-04T06:26:28.171Z,11.70
2022-11-04T06:28:55.393Z,11.90
2022-11-04T06:31:22.179Z,11.82
2022-11-04T06:33:48.711Z,10.70
2022-11-04T06:36:16.209Z,11.30
2022-11-04T06:38:43.008Z,9.57
2022-11-04T06:41:13.367Z,10.75
2022-11-04T06:43:40.244Z,10.32
2022-11-04T06:46:14.328Z,12.18
2022-11-04T06:48:40.938Z,11.30
2022-11-04T06:51:07.466Z,13.77
2022-11-04T06:53:34.065Z,12.20
2022-11-04T06:56:03.877Z,16.10
2022-11-04T06:58:30.502Z,14.55
2022-11-04T07:00:57.066Z,16.38
2022-11-04T07:03:23.636Z,16.15
2022-11-04T07:05:50.113Z,17.15
2022-11-04T07:08:16.614Z,20.13
2022-11-04T07:10:43.189Z,21.15
2022-11-04T07:13:10.594Z,22.10
2022-11-04T07:15:39.558Z,21.70
2022-11-04T07:18:07.159Z,21.20
2022-11-04T07:20:37.312Z,22.88
2022-11-04T07:23:03.963Z,23.25
2022-11-04T07:25:30.504Z,24.38
2022-11-04T07:28:01.068Z,22.35
2022-11-04T07:30:28.966Z,21.27
2022-11-04T07:32:55.447Z,19.88
2022-11-04T07:35:21.949Z,18.73
2022-11-04T07:37:48.469Z,16.95
2022-11-04T07:40:15.186Z,15.90
2022-11-04T07:42:41.691Z,13.30
2022-11-04T07:45:08.666Z,13.57
2022-11-04T07:47:35.172Z,12.45
2022-11-04T07:50:06.590Z,13.75
2022-11-04T07:52:36.229Z,14.68
2022-11-04T07:55:03.163Z,15.43
2022-11-04T07:57:29.665Z,14.77
2022-11-04T07:59:56.141Z,14.32
2022-11-04T08:02:27.567Z,15.50
2022-11-04T08:04:56.608Z,15.15
2022-11-04T08:07:23.190Z,16.23
2022-11-04T08:09:49.676Z,16.40
2022-11-04T08:12:16.200Z,15.88
2022-11-04T08:14:42.699Z,15.32
2022-11-04T08:17:10.151Z,14.85
2022-11-04T08:19:36.713Z,14.48
2022-11-04T08:22:03.222Z,12.35
2022-11-04T08:24:29.719Z,11.00
2022-11-04T08:26:56.229Z,10.32
2022-11-04T08:29:23.713Z,9.18
2022-11-04T08:31:50.194Z,8.90
2022-11-04T08:34:18.384Z,7.40
2022-11-04T08:36:45.656Z,7.93
2022-11-04T08:39:13.149Z,7.18
2022-11-04T08:41:42.982Z,7.15
2022-11-04T08:44:11.115Z,8.10
2022-11-04T08:46:39.737Z,7.75
2022-11-04T08:49:09.933Z,8.77
2022-11-04T08:51:38.320Z,7.50
2022-11-04T08:54:05.599Z,7.97
2022-11-04T08:56:35.229Z,7.20
2022-11-04T08:59:02.690Z,7.07
2022-11-04T09:01:35.413Z,7.00
2022-11-04T09:04:02.837Z,7.32
2022-11-04T09:06:36.291Z,7.72
2022-11-04T09:09:04.980Z,7.55
2022-11-04T09:11:33.035Z,6.57
2022-11-04T09:14:01.216Z,6.75
2022-11-04T09:16:31.701Z,5.88
2022-11-04T09:18:58.626Z,5.32
2022-11-04T09:21:26.716Z,5.00
2022-11-04T09:23:53.487Z,5.00
2022-11-04T09:26:21.101Z,5.45
2022-11-04T09:28:47.773Z,4.47
2022-11-04T09:31:16.918Z,4.75
2022-11-04T09:33:44.010Z,4.30
2022-11-04T09:36:11.664Z,5.10
2022-11-04T09:38:39.509Z,5.50
2022-11-04T09:41:18.887Z,5.93
2022-11-04T09:43:54.642Z,4.90
2022-11-04T09:46:21.262Z,4.78
2022-11-04T09:48:51.198Z,5.82
2022-11-04T09:51:39.939Z,5.60
2022-11-04T09:54:16.695Z,5.00
2022-11-04T09:56:45.467Z,4.60
2022-11-04T09:59:16.367Z,4.38
2022-11-04T10:01:47.544Z,4.95
2022-11-04T10:04:14.490Z,4.10
2022-11-04T10:06:52.880Z,4.38
2022-11-04T10:09:41.068Z,3.65
2022-11-04T10:12:26.299Z,3.80
2022-11-04T10:15:02.010Z,3.20
2022-11-04T10:17:54.741Z,4.35
2022-11-04T10:20:43.763Z,3.13
2022-11-04T10:23:16.608Z,3.25
2022-11-04T10:26:07.588Z,3.50
2022-11-04T10:28:39.791Z,3.38
2022-11-04T10:31:06.348Z,3.45
2022-11-04T10:33:39.465Z,3.40
2022-11-04T10:36:07.924Z,3.70
2022-11-04T10:38:53.354Z,2.90
2022-11-04T10:41:39.481Z,3.50
2022-11-04T10:44:21.349Z,3.40
2022-11-04T10:47:12.553Z,2.60
2022-11-04T10:50:21.808Z,2.78
2022-11-04T10:52:38.247Z,2.03
2022-11-04T10:55:30.422Z,3.22
2022-11-04T10:57:58.450Z,3.00
2022-11-04T11:00:38.605Z,3.10
2022-11-04T11:03:22.838Z,2.97
2022-11-04T11:05:49.904Z,2.65
2022-11-04T11:08:37.107Z,2.58
2022-11-04T11:11:05.838Z,2.70
2022-11-04T11:13:41.409Z,2.92
2022-11-04T11:16:21.377Z,2.50
2022-11-04T11:19:09.626Z,2.97
2022-11-04T11:21:50.412Z,2.58
2022-11-04T11:24:27.275Z,3.15
2022-11-04T11:26:55.575Z,2.50
2022-11-04T11:29:29.874Z,2.58
2022-11-04T11:31:57.240Z,2.57
2022-11-04T11:34:31.396Z,1.98
2022-11-04T11:36:58.726Z,2.50
2022-11-04T11:39:32.620Z,2.15
2022-11-04T11:42:06.457Z,1.98
2022-11-04T11:44:44.565Z,2.00
2022-11-04T11:47:31.564Z,2.20
2022-11-04T11:50:13.090Z,2.72
2022-11-04T11:52:41.277Z,1.80
2022-11-04T11:55:16.717Z,2.28
2022-11-04T12:01:26.914Z,2.00
2022-11-04T12:10:29.935Z,2.20
2022-11-04T12:13:06.399Z,1.42
2022-11-04T12:16:24.190Z,0.98
2022-11-04T12:19:08.855Z,1.40
2022-11-04T12:21:45.655Z,1.08
2022-11-04T12:24:22.330Z,1.80
2022-11-04T12:27:07.838Z,1.05
2022-11-04T12:30:08.057Z,1.02
2022-11-04T12:32:43.219Z,1.05
2022-11-04T12:38:20.166Z,1.20
2022-11-04T12:41:27.724Z,1.42
2022-11-04T12:43:54.194Z,1.55
2022-11-04T12:46:32.365Z,1.80
2022-11-04T12:49:10.933Z,2.72
2022-11-04T12:51:56.152Z,1.40
2022-11-04T12:54:25.750Z,1.17
2022-11-04T12:57:03.984Z,1.15
2022-11-04T12:59:58.793Z,1.20
2022-11-04T13:02:40.756Z,0.98
2022-11-04T13:05:41.330Z,1.40
2022-11-04T13:08:39.259Z,1.30
2022-11-04T13:11:22.820Z,1.15
2022-11-04T13:14:04.340Z,1.30
2022-11-04T13:16:34.380Z,1.30
2022-11-04T13:19:01.446Z,1.30
2022-11-04T13:21:32.229Z,1.30
2022-11-04T13:24:15.010Z,1.00
2022-11-04T13:26:41.475Z,1.60
2022-11-04T13:29:13.877Z,1.73
2022-11-04T13:32:01.656Z,1.70
2022-11-04T13:34:44.558Z,1.25
2022-11-04T13:37:28.597Z,1.17
2022-11-04T13:39:59.404Z,1.13
2022-11-04T13:43:20.211Z,1.00
2022-11-04T13:45:51.771Z,1.38
2022-11-04T13:48:25.049Z,1.95
2022-11-04T13:51:12.122Z,1.20
2022-11-04T13:53:50.659Z,1.50
2022-11-04T13:56:37.305Z,1.50
2022-11-04T13:59:30.036Z,1.40
2022-11-04T14:02:55.483Z,1.90
2022-11-04T14:05:28.201Z,1.60
2022-11-04T14:08:03.687Z,1.30
2022-11-04T14:10:42.442Z,1.70
2022-11-04T14:13:27.351Z,4.00
2022-11-04T14:16:12.147Z,1.70
2022-11-04T14:18:46.645Z,0.97
2022-11-04T14:21:25.355Z,1.33
2022-11-04T14:23:53.469Z,1.50
2022-11-04T14:26:22.962Z,1.58
2022-11-04T14:29:06.261Z,2.42
2022-11-04T14:31:36.636Z,2.40
2022-11-04T14:34:03.909Z,2.83
2022-11-04T14:36:34.832Z,1.92
2022-11-04T14:39:07.683Z,1.50
2022-11-04T14:41:40.367Z,1.80
2022-11-04T14:44:12.503Z,2.67
2022-11-04T14:46:44.917Z,1.77
2022-11-04T14:49:46.883Z,2.40
2022-11-04T14:52:20.986Z,2.60
2022-11-04T14:54:47.913Z,2.72
2022-11-04T14:57:16.874Z,3.20
2022-11-04T14:59:43.409Z,2.75
2022-11-04T15:02:16.203Z,2.60
2022-11-04T15:04:49.564Z,2.42
2022-11-04T15:07:31.437Z,1.90
2022-11-04T15:09:57.902Z,1.95
2022-11-04T15:12:43.039Z,1.67
2022-11-04T15:15:28.141Z,1.80
2022-11-04T15:18:00.991Z,2.33
2022-11-04T15:20:30.568Z,1.73
2022-11-04T15:22:59.249Z,1.70
2022-11-04T15:25:25.765Z,2.17
2022-11-04T15:27:53.158Z,1.70
2022-11-04T15:30:26.403Z,1.90
2022-11-04T15:33:03.175Z,1.63
2022-11-04T15:35:32.121Z,1.88
2022-11-04T15:37:59.851Z,1.85
2022-11-04T15:40:28.240Z,2.00
2022-11-04T15:42:55.059Z,2.13
2022-11-04T15:45:38.453Z,1.80
2022-11-04T15:48:26.870Z,2.05
2022-11-04T15:51:11.861Z,1.92
2022-11-04T15:53:49.833Z,3.00
2022-11-04T15:56:19.085Z,3.17
2022-11-04T15:58:45.886Z,3.15
2022-11-04T16:01:16.871Z,2.50
2022-11-04T16:03:55.247Z,2.72
2022-11-04T16:06:39.555Z,3.75
2022-11-04T16:09:27.324Z,3.67
2022-11-04T16:12:09.248Z,3.63
2022-11-04T16:14:36.009Z,3.60
2022-11-04T16:17:02.566Z,3.53
2022-11-04T16:19:30.033Z,4.30
2022-11-04T16:22:20.791Z,3.80
2022-11-04T16:24:48.871Z,4.13
2022-11-04T16:27:19.187Z,6.78
2022-11-04T16:30:02.776Z,11.48
2022-11-04T16:32:31.988Z,11.82
2022-11-04T16:35:01.608Z,7.65
2022-11-04T16:37:28.234Z,6.53
2022-11-04T16:39:54.755Z,5.70
2022-11-04T16:42:22.170Z,8.52
2022-11-04T16:44:50.616Z,22.67
2022-11-04T16:47:18.931Z,11.43
2022-11-04T16:49:45.992Z,10.05
2022-11-04T16:52:21.194Z,7.95
2022-11-04T16:57:15.376Z,5.57
2022-11-04T16:59:41.990Z,6.20
2022-11-04T17:02:20.235Z,7.63
2022-11-04T17:04:47.278Z,11.00
2022-11-04T17:07:13.790Z,11.65
2022-11-04T17:09:40.283Z,8.15
2022-11-04T17:12:06.880Z,12.40
2022-11-04T17:14:33.437Z,12.50
2022-11-04T17:16:59.885Z,14.38
2022-11-04T17:19:30.501Z,15.52
2022-11-04T17:22:02.642Z,15.85
2022-11-04T17:24:29.556Z,24.95
2022-11-04T17:26:56.039Z,24.52
2022-11-04T17:29:22.586Z,15.93
2022-11-04T17:31:49.140Z,14.02
2022-11-04T17:34:15.982Z,17.08
2022-11-04T17:36:42.470Z,28.60
2022-11-04T17:39:08.961Z,21.23
2022-11-04T17:41:54.002Z,13.80
2022-11-04T17:44:20.531Z,15.95
2022-11-04T17:46:48.764Z,12.43
2022-11-04T17:49:18.319Z,14.80
2022-11-04T17:51:47.680Z,23.83
2022-11-04T17:54:14.753Z,20.23
2022-11-04T17:56:41.731Z,19.27
2022-11-04T17:59:08.766Z,18.83
2022-11-04T18:01:35.929Z,35.58
2022-11-04T18:04:02.730Z,22.17
2022-11-04T18:06:35.025Z,15.57
2022-11-04T18:09:03.209Z,10.13
2022-11-04T18:11:48.976Z,8.90
2022-11-04T18:14:17.362Z,8.10
2022-11-04T18:16:46.251Z,8.27
2022-11-04T18:19:13.320Z,7.35
2022-11-04T18:21:39.810Z,10.02
2022-11-04T18:24:06.648Z,130.43
2022-11-04T18:26:33.144Z,76.07
2022-11-04T18:28:59.639Z,58.80
2022-11-04T18:31:28.963Z,42.60
2022-11-04T18:33:55.474Z,32.22
2022-11-04T18:36:21.984Z,24.10
2022-11-04T18:38:48.593Z,12.90
2022-11-04T18:41:16.442Z,12.18
2022-11-04T18:43:42.985Z,10.23
2022-11-04T18:46:12.219Z,8.63
2022-11-04T18:48:39.223Z,9.38
2022-11-04T18:51:08.056Z,13.57
2022-11-04T18:53:35.450Z,19.70
2022-11-04T18:56:06.407Z,12.75
2022-11-04T18:58:36.111Z,10.23
2022-11-04T19:01:09.798Z,5.72
2022-11-04T19:03:36.566Z,4.80
2022-11-04T19:06:08.032Z,4.30
2022-11-04T19:08:35.265Z,4.13
2022-11-04T19:11:02.983Z,3.53
2022-11-04T19:13:29.506Z,2.33
2022-11-04T19:15:56.157Z,3.10
2022-11-04T19:18:22.860Z,1.50
2022-11-04T19:20:49.384Z,2.75
2022-11-04T19:23:15.848Z,1.45
2022-11-04T19:25:42.516Z,1.38
2022-11-04T19:28:33.181Z,1.00
2022-11-04T19:31:00.668Z,1.30
2022-11-04T19:33:28.473Z,1.98
2022-11-04T19:35:55.340Z,1.48
2022-11-04T19:38:22.967Z,2.30
2022-11-04T19:40:52.098Z,1.98
2022-11-04T19:43:22.442Z,1.92
2022-11-04T19:45:50.075Z,2.00
2022-11-04T19:48:18.485Z,1.60
2022-11-04T19:50:49.134Z,1.60
2022-11-04T19:53:17.104Z,1.23
2022-11-04T19:55:55.243Z,33.03
2022-11-04T19:58:23.264Z,12.52
2022-11-04T20:00:51.033Z,8.80
2022-11-04T20:03:17.733Z,6.45
2022-11-04T20:05:45.144Z,2.55
2022-11-04T20:08:11.953Z,4.95
2022-11-04T20:10:41.488Z,3.35
2022-11-04T20:13:33.098Z,3.00
2022-11-04T20:16:00.872Z,2.80
2022-11-04T20:18:27.397Z,3.60
2022-11-04T20:20:53.974Z,3.20
2022-11-04T20:23:20.558Z,3.97
2022-11-04T20:25:47.132Z,4.72
2022-11-04T20:28:13.816Z,4.10
2022-11-04T20:30:41.244Z,4.65
2022-11-04T20:33:07.734Z,4.45
2022-11-04T20:35:34.920Z,3.70
2022-11-04T20:38:01.392Z,4.30
2022-11-04T20:40:27.940Z,4.03
2022-11-04T20:42:54.574Z,3.60
2022-11-04T20:45:21.398Z,3.85
2022-11-04T20:47:48.206Z,4.10
2022-11-04T20:50:14.714Z,4.25
2022-11-04T20:52:41.234Z,3.90
2022-11-04T20:55:08.341Z,4.68
2022-11-04T20:57:34.916Z,5.05
2022-11-04T21:00:01.405Z,4.43
2022-11-04T21:02:28.312Z,4.95
2022-11-04T21:04:54.954Z,5.60
2022-11-04T21:07:21.559Z,4.90
2022-11-04T21:09:51.155Z,4.78
2022-11-04T21:12:19.101Z,5.00
2022-11-04T21:14:45.599Z,4.30
2022-11-04T21:17:13.303Z,3.97
2022-11-04T21:19:39.773Z,3.67
2022-11-04T21:22:06.331Z,3.50
2022-11-04T21:24:38.956Z,3.25
2022-11-04T21:27:06.013Z,3.10
2022-11-04T21:29:32.587Z,4.03
2022-11-04T21:31:59.114Z,3.80
2022-11-04T21:34:25.629Z,3.38
2022-11-04T21:36:52.419Z,3.33
2022-11-04T21:39:18.981Z,2.85
2022-11-04T21:41:45.563Z,2.85
2022-11-04T21:44:13.373Z,3.38
2022-11-04T21:46:39.889Z,3.20
2022-11-04T21:49:06.504Z,3.45
2022-11-04T21:51:34.249Z,2.85
2022-11-04T21:54:00.926Z,3.58
2022-11-04T21:56:29.298Z,2.88
2022-11-04T21:58:56.034Z,3.25
2022-11-04T22:01:26.591Z,2.70
2022-11-04T22:03:55.905Z,3.17
2022-11-04T22:06:22.629Z,2.70
2022-11-04T22:08:54.110Z,3.30
2022-11-04T22:11:29.922Z,4.30
2022-11-04T22:14:01.339Z,3.28
2022-11-04T22:16:29.493Z,2.90
2022-11-04T22:18:58.139Z,2.70
2022-11-04T22:21:26.088Z,2.90
2022-11-04T22:23:53.166Z,2.47
2022-11-04T22:26:24.653Z,3.75
2022-11-04T22:28:51.434Z,2.78
2022-11-04T22:31:20.816Z,2.80
2022-11-04T22:33:47.358Z,3.08
2022-11-04T22:36:14.102Z,2.78
2022-11-04T22:38:41.736Z,2.67
2022-11-04T22:41:10.501Z,2.78
2022-11-04T22:43:37.009Z,3.22
2022-11-04T22:46:10.686Z,2.72
2022-11-04T22:48:37.833Z,3.22
2022-11-04T22:51:04.759Z,3.30
2022-11-04T22:53:31.240Z,3.20
2022-11-04T22:56:00.654Z,3.25
2022-11-04T22:58:27.878Z,3.40
2022-11-04T23:00:56.609Z,3.80
2022-11-04T23:03:23.335Z,4.47
2022-11-04T23:05:57.175Z,3.95
2022-11-04T23:08:24.374Z,3.70
2022-11-04T23:11:12.780Z,4.22
2022-11-04T23:14:00.035Z,4.43
2022-11-04T23:16:45.076Z,4.85
2022-11-04T23:19:11.558Z,5.25
2022-11-04T23:21:56.798Z,5.15
2022-11-04T23:24:41.660Z,5.38
2022-11-04T23:27:08.206Z,4.70
2022-11-04T23:29:53.240Z,4.53
2022-11-04T23:32:23.178Z,5.22
2022-11-04T23:35:12.149Z,4.95
2022-11-04T23:37:38.638Z,3.85
2022-11-04T23:40:05.715Z,4.30
2022-11-04T23:42:32.166Z,4.47
2022-11-04T23:45:16.953Z,4.50
2022-11-04T23:48:04.497Z,4.67
2022-11-04T23:50:52.210Z,4.80
2022-11-04T23:53:38.733Z,4.40
2022-11-04T23:56:24.866Z,5.75
2022-11-04T23:59:10.273Z,4.22
